createdAt,value
2023-05-17T00:09:34.357Z,974.59
2023-05-17T00:21:34.814Z,974.11
2023-05-17T00:33:35.273Z,973.77
2023-05-17T00:45:35.734Z,973.46
2023-05-17T00:57:36.156Z,973.72
2023-05-17T01:09:36.683Z,973.80
2023-05-17T01:21:37.086Z,973.86
2023-05-17T01:33:37.625Z,973.82
2023-05-17T01:45:37.982Z,973.98
2023-05-17T01:57:38.626Z,973.92
2023-05-17T02:09:38.901Z,973.99
2023-05-17T02:21:39.314Z,973.81
2023-05-17T02:33:39.844Z,974.04
2023-05-17T02:45:40.266Z,974.08
2023-05-17T02:57:40.731Z,974.13
2023-05-17T03:09:41.144Z,974.28
2023-05-17T03:21:41.620Z,974.46
2023-05-17T03:33:42.191Z,974.45
2023-05-17T03:45:42.487Z,974.89
2023-05-17T03:57:42.957Z,974.97
2023-05-17T04:09:43.516Z,975.16
2023-05-17T04:21:43.906Z,975.29
2023-05-17T04:33:44.344Z,975.33
2023-05-17T04:45:44.765Z,975.37
2023-05-17T04:57:45.242Z,975.31
2023-05-17T05:09:45.681Z,975.52
2023-05-17T05:21:46.121Z,975.37
2023-05-17T05:33:46.615Z,975.38
2023-05-17T05:45:47.022Z,975.56
2023-05-17T05:57:47.500Z,975.84
2023-05-17T06:09:47.953Z,976.01
2023-05-17T06:21:48.408Z,976.27
2023-05-17T06:33:48.934Z,976.28
2023-05-17T06:45:49.388Z,976.59
2023-05-17T06:57:49.812Z,976.81
2023-05-17T07:09:50.304Z,977.13
2023-05-17T07:21:50.715Z,977.24
2023-05-17T07:33:51.227Z,977.30
2023-05-17T07:45:51.633Z,977.23
2023-05-17T07:57:54.780Z,977.43
2023-05-17T08:09:52.516Z,977.40
2023-05-17T08:21:52.959Z,977.36
2023-05-17T08:33:53.408Z,977.56
2023-05-17T08:45:53.830Z,977.63
2023-05-17T08:57:54.289Z,977.74
2023-05-17T09:09:54.774Z,977.76
2023-05-17T09:21:55.207Z,977.81
2023-05-17T09:33:55.715Z,978.09
2023-05-17T09:45:56.177Z,978.28
2023-05-17T09:57:56.618Z,978.29
2023-05-17T10:09:57.008Z,978.43
2023-05-17T10:22:00.339Z,978.34
2023-05-17T10:33:57.963Z,978.58
2023-05-17T10:45:58.406Z,978.54
2023-05-17T10:57:58.798Z,978.52
2023-05-17T11:09:59.293Z,978.59
2023-05-17T11:21:59.691Z,978.75
2023-05-17T11:34:00.277Z,978.92
2023-05-17T11:46:00.730Z,978.99
2023-05-17T11:58:01.096Z,979.52
2023-05-17T12:10:01.586Z,979.82
2023-05-17T12:22:02.020Z,980.03
2023-05-17T12:34:02.865Z,980.01
2023-05-17T12:46:03.858Z,980.28
2023-05-17T12:58:03.349Z,980.15
2023-05-17T13:10:03.802Z,980.21
2023-05-17T13:22:04.255Z,980.40
2023-05-17T13:34:04.831Z,980.44
2023-05-17T13:46:05.185Z,980.55
2023-05-17T13:58:08.361Z,980.51
2023-05-17T14:10:06.046Z,980.52
2023-05-17T14:22:06.506Z,980.59
2023-05-17T14:34:07.052Z,980.64
2023-05-17T14:46:07.460Z,980.63
2023-05-17T14:58:07.916Z,980.63
2023-05-17T15:10:08.336Z,980.70
2023-05-17T15:22:08.793Z,980.74
2023-05-17T15:34:09.304Z,980.65
2023-05-17T15:46:09.678Z,980.62
2023-05-17T15:58:10.137Z,980.52
2023-05-17T16:10:10.598Z,980.70
2023-05-17T16:22:11.084Z,980.84
2023-05-17T16:34:11.534Z,981.04
2023-05-17T16:46:11.945Z,981.04
2023-05-17T16:58:12.411Z,981.33
2023-05-17T17:10:12.887Z,981.46
2023-05-17T17:22:13.311Z,981.48
2023-05-17T17:34:13.758Z,981.37
2023-05-17T17:46:14.232Z,981.65
2023-05-17T17:58:14.709Z,981.73
2023-05-17T18:10:15.138Z,981.85
2023-05-17T18:22:15.609Z,981.97
2023-05-17T18:34:16.035Z,982.01
2023-05-17T18:46:16.565Z,982.32
2023-05-17T18:58:16.936Z,982.41
2023-05-17T19:10:17.388Z,982.58
2023-05-17T19:22:17.866Z,982.68
2023-05-17T19:34:18.334Z,982.94
2023-05-17T19:46:18.805Z,982.89
2023-05-17T19:58:19.209Z,982.75
2023-05-17T20:10:19.722Z,982.90
2023-05-17T20:22:20.136Z,983.05
2023-05-17T20:34:20.583Z,983.09
2023-05-17T20:46:21.043Z,983.21
2023-05-17T20:58:21.473Z,982.98
2023-05-17T21:10:21.983Z,982.98
2023-05-17T21:22:22.358Z,983.12
2023-05-17T21:34:22.832Z,983.16
2023-05-17T21:46:23.299Z,983.31
2023-05-17T21:58:23.847Z,983.24
2023-05-17T22:10:24.216Z,983.18
2023-05-17T22:22:24.679Z,983.13
2023-05-17T22:34:25.091Z,983.19
2023-05-17T22:46:25.600Z,983.10
2023-05-17T22:58:26.096Z,983.12
2023-05-17T23:10:26.496Z,983.02
2023-05-17T23:22:26.892Z,982.86
2023-05-17T23:34:27.386Z,982.86
2023-05-17T23:46:27.826Z,982.78
2023-05-17T23:58:28.267Z,982.79
